EGAE/LDY METAR and TAF weather

Enter ICAO airport designator
Station Type Date Time Source
EGAE METAR 2020/02/26 09:50 UTC NOAA

EGAE 260950Z 22011KT 9999 FEW022 04/01 Q1004


Station Type Date Time Source
EGAE Decoded METAR 2020/02/26 09:50 UTC NOAA

Eglinton / Londonderr, United Kingdom (EGAE) 55-03N 007-09W
Feb 26, 2020 - 04:50 AM EST / 2020.02.26 0950 UTC
Wind: from the SW (220 degrees) at 13 MPH (11 KT):0
Visibility: greater than 7 mile(s):0
Sky conditions: mostly clear
Temperature: 39 F (4 C)
Dew Point: 33 F (1 C)
Relative Humidity: 80%
Pressure (altimeter): 29.65 in. Hg (1004 hPa)
ob: EGAE 260950Z 22011KT 9999 FEW022 04/01 Q1004
cycle: 10

Station Type Date Time Source
EGAE TAF UTC NOAA

Error!

Example: see airport list